sensor_id;sensor_type;location;lat;lon;timestamp;P1;durP1;ratioP1;P2;durP2;ratioP2
2213;SDS011;1113;42.018;23.986;2024-01-27T00:02:03;44.72;;;25.60;;
2213;SDS011;1113;42.018;23.986;2024-01-27T00:04:30;36.25;;;22.10;;
2213;SDS011;1113;42.018;23.986;2024-01-27T00:06:58;47.42;;;24.05;;
2213;SDS011;1113;42.018;23.986;2024-01-27T00:09:27;49.10;;;26.83;;
2213;SDS011;1113;42.018;23.986;2024-01-27T00:11:54;41.65;;;21.02;;
2213;SDS011;1113;42.018;23.986;2024-01-27T00:14:21;42.50;;;23.42;;
2213;SDS011;1113;42.018;23.986;2024-01-27T00:16:48;49.08;;;25.67;;
2213;SDS011;1113;42.018;23.986;2024-01-27T00:19:16;69.38;;;34.22;;
2213;SDS011;1113;42.018;23.986;2024-01-27T00:21:43;45.80;;;26.00;;
2213;SDS011;1113;42.018;23.986;2024-01-27T00:24:10;29.30;;;16.58;;
2213;SDS011;1113;42.018;23.986;2024-01-27T00:26:38;38.78;;;20.35;;
2213;SDS011;1113;42.018;23.986;2024-01-27T00:29:05;39.45;;;20.52;;
2213;SDS011;1113;42.018;23.986;2024-01-27T00:31:33;25.00;;;14.50;;
2213;SDS011;1113;42.018;23.986;2024-01-27T00:34:00;23.25;;;15.00;;
2213;SDS011;1113;42.018;23.986;2024-01-27T00:36:27;35.22;;;20.02;;
2213;SDS011;1113;42.018;23.986;2024-01-27T00:38:54;24.60;;;15.02;;
2213;SDS011;1113;42.018;23.986;2024-01-27T00:41:21;26.48;;;15.38;;
2213;SDS011;1113;42.018;23.986;2024-01-27T00:43:50;17.10;;;11.50;;
2213;SDS011;1113;42.018;23.986;2024-01-27T00:46:17;27.30;;;12.85;;
2213;SDS011;1113;42.018;23.986;2024-01-27T00:48:44;22.83;;;13.90;;
2213;SDS011;1113;42.018;23.986;2024-01-27T00:51:12;30.13;;;19.13;;
2213;SDS011;1113;42.018;23.986;2024-01-27T00:53:39;24.73;;;17.17;;
2213;SDS011;1113;42.018;23.986;2024-01-27T00:56:07;27.90;;;16.50;;
2213;SDS011;1113;42.018;23.986;2024-01-27T00:58:34;28.10;;;15.95;;
2213;SDS011;1113;42.018;23.986;2024-01-27T01:01:03;26.25;;;15.65;;
2213;SDS011;1113;42.018;23.986;2024-01-27T01:03:31;24.02;;;16.52;;
2213;SDS011;1113;42.018;23.986;2024-01-27T01:05:58;28.05;;;16.52;;
2213;SDS011;1113;42.018;23.986;2024-01-27T01:08:25;24.83;;;16.65;;
2213;SDS011;1113;42.018;23.986;2024-01-27T01:10:52;22.73;;;14.25;;
2213;SDS011;1113;42.018;23.986;2024-01-27T01:13:19;21.45;;;13.10;;
2213;SDS011;1113;42.018;23.986;2024-01-27T01:15:47;22.92;;;14.95;;
2213;SDS011;1113;42.018;23.986;2024-01-27T01:18:15;29.88;;;14.10;;
2213;SDS011;1113;42.018;23.986;2024-01-27T01:20:42;27.02;;;14.52;;
2213;SDS011;1113;42.018;23.986;2024-01-27T01:23:10;27.60;;;14.55;;
2213;SDS011;1113;42.018;23.986;2024-01-27T01:25:37;19.65;;;12.70;;
2213;SDS011;1113;42.018;23.986;2024-01-27T01:28:03;21.63;;;12.93;;
2213;SDS011;1113;42.018;23.986;2024-01-27T01:30:30;21.33;;;12.48;;
2213;SDS011;1113;42.018;23.986;2024-01-27T01:32:58;36.83;;;19.70;;
2213;SDS011;1113;42.018;23.986;2024-01-27T01:35:26;27.88;;;16.13;;
2213;SDS011;1113;42.018;23.986;2024-01-27T01:37:54;27.70;;;15.35;;
2213;SDS011;1113;42.018;23.986;2024-01-27T01:40:21;25.60;;;12.70;;
2213;SDS011;1113;42.018;23.986;2024-01-27T01:42:51;23.40;;;15.40;;
2213;SDS011;1113;42.018;23.986;2024-01-27T01:45:18;28.65;;;15.38;;
2213;SDS011;1113;42.018;23.986;2024-01-27T01:47:45;31.00;;;16.40;;
2213;SDS011;1113;42.018;23.986;2024-01-27T01:50:13;30.70;;;15.30;;
2213;SDS011;1113;42.018;23.986;2024-01-27T01:52:42;24.42;;;15.43;;
2213;SDS011;1113;42.018;23.986;2024-01-27T01:55:09;24.40;;;15.65;;
2213;SDS011;1113;42.018;23.986;2024-01-27T01:57:36;24.42;;;14.80;;
2213;SDS011;1113;42.018;23.986;2024-01-27T02:00:04;50.88;;;30.80;;
2213;SDS011;1113;42.018;23.986;2024-01-27T02:02:32;42.17;;;24.42;;
2213;SDS011;1113;42.018;23.986;2024-01-27T02:04:59;67.95;;;33.63;;
2213;SDS011;1113;42.018;23.986;2024-01-27T02:07:27;43.85;;;26.00;;
2213;SDS011;1113;42.018;23.986;2024-01-27T02:09:55;42.15;;;22.88;;
2213;SDS011;1113;42.018;23.986;2024-01-27T02:12:22;42.92;;;21.05;;
2213;SDS011;1113;42.018;23.986;2024-01-27T02:14:50;34.10;;;18.65;;
2213;SDS011;1113;42.018;23.986;2024-01-27T02:17:17;19.98;;;12.85;;
2213;SDS011;1113;42.018;23.986;2024-01-27T02:19:44;20.63;;;12.95;;
2213;SDS011;1113;42.018;23.986;2024-01-27T02:22:11;33.70;;;17.60;;
2213;SDS011;1113;42.018;23.986;2024-01-27T02:24:39;35.35;;;21.38;;
2213;SDS011;1113;42.018;23.986;2024-01-27T02:27:06;40.50;;;22.88;;
2213;SDS011;1113;42.018;23.986;2024-01-27T02:29:33;60.95;;;35.20;;
2213;SDS011;1113;42.018;23.986;2024-01-27T02:32:00;75.97;;;47.58;;
2213;SDS011;1113;42.018;23.986;2024-01-27T02:34:27;98.28;;;56.63;;
2213;SDS011;1113;42.018;23.986;2024-01-27T02:36:55;97.50;;;55.90;;
2213;SDS011;1113;42.018;23.986;2024-01-27T02:39:22;79.72;;;49.45;;
2213;SDS011;1113;42.018;23.986;2024-01-27T02:41:50;44.97;;;26.02;;
2213;SDS011;1113;42.018;23.986;2024-01-27T02:44:17;43.65;;;24.30;;
2213;SDS011;1113;42.018;23.986;2024-01-27T02:46:44;51.15;;;23.63;;
2213;SDS011;1113;42.018;23.986;2024-01-27T02:49:11;41.70;;;21.75;;
2213;SDS011;1113;42.018;23.986;2024-01-27T02:51:39;42.45;;;22.13;;
2213;SDS011;1113;42.018;23.986;2024-01-27T02:54:06;37.60;;;22.55;;
2213;SDS011;1113;42.018;23.986;2024-01-27T02:56:33;44.90;;;24.77;;
2213;SDS011;1113;42.018;23.986;2024-01-27T02:59:01;49.55;;;23.60;;
2213;SDS011;1113;42.018;23.986;2024-01-27T03:01:28;39.80;;;21.85;;
2213;SDS011;1113;42.018;23.986;2024-01-27T03:03:55;39.35;;;22.00;;
2213;SDS011;1113;42.018;23.986;2024-01-27T03:06:24;34.63;;;20.67;;
2213;SDS011;1113;42.018;23.986;2024-01-27T03:08:51;35.10;;;19.83;;
2213;SDS011;1113;42.018;23.986;2024-01-27T03:11:18;30.20;;;17.45;;
2213;SDS011;1113;42.018;23.986;2024-01-27T03:13:45;38.15;;;22.10;;
2213;SDS011;1113;42.018;23.986;2024-01-27T03:16:14;33.70;;;20.65;;
2213;SDS011;1113;42.018;23.986;2024-01-27T03:18:42;41.00;;;21.65;;
2213;SDS011;1113;42.018;23.986;2024-01-27T03:21:09;41.47;;;23.60;;
2213;SDS011;1113;42.018;23.986;2024-01-27T03:23:36;40.00;;;23.90;;
2213;SDS011;1113;42.018;23.986;2024-01-27T03:26:04;45.75;;;25.45;;
2213;SDS011;1113;42.018;23.986;2024-01-27T03:28:31;41.80;;;24.55;;
2213;SDS011;1113;42.018;23.986;2024-01-27T03:30:58;53.72;;;32.33;;
2213;SDS011;1113;42.018;23.986;2024-01-27T03:33:26;51.22;;;33.13;;
2213;SDS011;1113;42.018;23.986;2024-01-27T03:35:55;50.80;;;27.77;;
2213;SDS011;1113;42.018;23.986;2024-01-27T03:38:23;44.47;;;26.65;;
2213;SDS011;1113;42.018;23.986;2024-01-27T03:40:50;42.58;;;25.85;;
2213;SDS011;1113;42.018;23.986;2024-01-27T03:43:17;41.97;;;25.08;;
2213;SDS011;1113;42.018;23.986;2024-01-27T03:45:44;42.65;;;24.80;;
2213;SDS011;1113;42.018;23.986;2024-01-27T03:48:11;50.22;;;26.27;;
2213;SDS011;1113;42.018;23.986;2024-01-27T03:50:40;49.95;;;27.38;;
2213;SDS011;1113;42.018;23.986;2024-01-27T03:53:07;48.45;;;26.90;;
2213;SDS011;1113;42.018;23.986;2024-01-27T03:55:34;55.15;;;29.90;;
2213;SDS011;1113;42.018;23.986;2024-01-27T03:58:01;49.40;;;29.65;;
2213;SDS011;1113;42.018;23.986;2024-01-27T04:00:28;47.20;;;28.98;;
2213;SDS011;1113;42.018;23.986;2024-01-27T04:02:58;51.05;;;30.08;;
2213;SDS011;1113;42.018;23.986;2024-01-27T04:05:25;56.38;;;31.90;;
2213;SDS011;1113;42.018;23.986;2024-01-27T04:07:53;47.90;;;31.38;;
2213;SDS011;1113;42.018;23.986;2024-01-27T04:10:21;44.67;;;27.83;;
2213;SDS011;1113;42.018;23.986;2024-01-27T04:12:48;42.80;;;26.30;;
2213;SDS011;1113;42.018;23.986;2024-01-27T04:15:15;38.80;;;25.08;;
2213;SDS011;1113;42.018;23.986;2024-01-27T04:17:42;42.83;;;25.40;;
2213;SDS011;1113;42.018;23.986;2024-01-27T04:20:10;44.30;;;26.52;;
2213;SDS011;1113;42.018;23.986;2024-01-27T04:22:38;46.50;;;29.52;;
2213;SDS011;1113;42.018;23.986;2024-01-27T04:25:07;52.88;;;33.60;;
2213;SDS011;1113;42.018;23.986;2024-01-27T04:27:36;48.88;;;30.15;;
2213;SDS011;1113;42.018;23.986;2024-01-27T04:30:05;50.15;;;28.33;;
2213;SDS011;1113;42.018;23.986;2024-01-27T04:32:33;53.58;;;31.80;;
2213;SDS011;1113;42.018;23.986;2024-01-27T04:35:00;46.05;;;29.98;;
2213;SDS011;1113;42.018;23.986;2024-01-27T04:37:28;42.70;;;28.20;;
2213;SDS011;1113;42.018;23.986;2024-01-27T04:39:55;39.30;;;23.25;;
2213;SDS011;1113;42.018;23.986;2024-01-27T04:42:24;37.08;;;20.17;;
2213;SDS011;1113;42.018;23.986;2024-01-27T04:44:51;37.10;;;21.55;;
2213;SDS011;1113;42.018;23.986;2024-01-27T04:47:18;36.13;;;21.80;;
2213;SDS011;1113;42.018;23.986;2024-01-27T04:49:45;42.97;;;20.42;;
2213;SDS011;1113;42.018;23.986;2024-01-27T04:52:12;36.78;;;20.55;;
2213;SDS011;1113;42.018;23.986;2024-01-27T04:54:39;30.80;;;20.30;;
2213;SDS011;1113;42.018;23.986;2024-01-27T04:57:06;36.65;;;23.65;;
2213;SDS011;1113;42.018;23.986;2024-01-27T04:59:35;39.33;;;21.35;;
2213;SDS011;1113;42.018;23.986;2024-01-27T05:02:02;39.08;;;23.40;;
2213;SDS011;1113;42.018;23.986;2024-01-27T05:04:29;44.92;;;24.20;;
2213;SDS011;1113;42.018;23.986;2024-01-27T05:06:57;48.45;;;26.92;;
2213;SDS011;1113;42.018;23.986;2024-01-27T05:09:24;39.78;;;23.85;;
2213;SDS011;1113;42.018;23.986;2024-01-27T05:11:51;43.97;;;25.63;;
2213;SDS011;1113;42.018;23.986;2024-01-27T05:14:18;53.58;;;28.83;;
2213;SDS011;1113;42.018;23.986;2024-01-27T05:16:48;42.72;;;27.08;;
2213;SDS011;1113;42.018;23.986;2024-01-27T05:19:15;42.97;;;28.92;;
2213;SDS011;1113;42.018;23.986;2024-01-27T05:21:43;49.58;;;30.40;;
2213;SDS011;1113;42.018;23.986;2024-01-27T05:24:10;47.20;;;31.33;;
2213;SDS011;1113;42.018;23.986;2024-01-27T05:26:38;52.33;;;33.05;;
2213;SDS011;1113;42.018;23.986;2024-01-27T05:29:05;46.30;;;29.67;;
2213;SDS011;1113;42.018;23.986;2024-01-27T05:31:32;42.75;;;26.38;;
2213;SDS011;1113;42.018;23.986;2024-01-27T05:34:01;46.05;;;26.13;;
2213;SDS011;1113;42.018;23.986;2024-01-27T05:36:28;37.05;;;21.30;;
2213;SDS011;1113;42.018;23.986;2024-01-27T05:38:55;36.15;;;21.95;;
2213;SDS011;1113;42.018;23.986;2024-01-27T05:41:25;30.98;;;18.23;;
2213;SDS011;1113;42.018;23.986;2024-01-27T05:43:54;27.75;;;19.25;;
2213;SDS011;1113;42.018;23.986;2024-01-27T05:46:22;35.03;;;21.42;;
2213;SDS011;1113;42.018;23.986;2024-01-27T05:48:50;35.08;;;20.55;;
2213;SDS011;1113;42.018;23.986;2024-01-27T05:51:21;35.97;;;22.33;;
2213;SDS011;1113;42.018;23.986;2024-01-27T05:53:49;40.78;;;23.10;;
2213;SDS011;1113;42.018;23.986;2024-01-27T05:56:16;33.17;;;20.98;;
2213;SDS011;1113;42.018;23.986;2024-01-27T05:58:44;33.65;;;20.35;;
2213;SDS011;1113;42.018;23.986;2024-01-27T06:01:11;28.23;;;18.85;;
2213;SDS011;1113;42.018;23.986;2024-01-27T06:03:40;28.10;;;18.45;;
2213;SDS011;1113;42.018;23.986;2024-01-27T06:06:08;27.05;;;18.02;;
2213;SDS011;1113;42.018;23.986;2024-01-27T06:08:36;29.50;;;18.40;;
2213;SDS011;1113;42.018;23.986;2024-01-27T06:11:04;32.38;;;18.75;;
2213;SDS011;1113;42.018;23.986;2024-01-27T06:13:31;32.05;;;20.17;;
2213;SDS011;1113;42.018;23.986;2024-01-27T06:15:59;35.90;;;22.50;;
2213;SDS011;1113;42.018;23.986;2024-01-27T06:18:26;31.83;;;19.75;;
2213;SDS011;1113;42.018;23.986;2024-01-27T06:20:54;35.25;;;20.80;;
2213;SDS011;1113;42.018;23.986;2024-01-27T06:23:21;37.55;;;25.38;;
2213;SDS011;1113;42.018;23.986;2024-01-27T06:25:49;52.35;;;32.00;;
2213;SDS011;1113;42.018;23.986;2024-01-27T06:28:16;82.43;;;49.53;;
2213;SDS011;1113;42.018;23.986;2024-01-27T06:30:43;74.70;;;39.65;;
2213;SDS011;1113;42.018;23.986;2024-01-27T06:33:11;68.95;;;40.40;;
2213;SDS011;1113;42.018;23.986;2024-01-27T06:35:38;76.93;;;42.15;;
2213;SDS011;1113;42.018;23.986;2024-01-27T06:38:05;65.20;;;40.28;;
2213;SDS011;1113;42.018;23.986;2024-01-27T06:40:32;65.78;;;41.75;;
2213;SDS011;1113;42.018;23.986;2024-01-27T06:43:01;65.50;;;40.70;;
2213;SDS011;1113;42.018;23.986;2024-01-27T06:45:28;62.20;;;36.40;;
2213;SDS011;1113;42.018;23.986;2024-01-27T06:47:55;58.05;;;35.47;;
2213;SDS011;1113;42.018;23.986;2024-01-27T06:50:22;57.03;;;38.80;;
2213;SDS011;1113;42.018;23.986;2024-01-27T06:52:49;65.63;;;41.92;;
2213;SDS011;1113;42.018;23.986;2024-01-27T06:55:17;78.10;;;48.50;;
2213;SDS011;1113;42.018;23.986;2024-01-27T06:57:44;84.40;;;50.97;;
2213;SDS011;1113;42.018;23.986;2024-01-27T07:00:13;103.55;;;56.60;;
2213;SDS011;1113;42.018;23.986;2024-01-27T07:02:41;82.05;;;49.42;;
2213;SDS011;1113;42.018;23.986;2024-01-27T07:05:08;86.63;;;52.63;;
2213;SDS011;1113;42.018;23.986;2024-01-27T07:07:35;86.03;;;51.38;;
2213;SDS011;1113;42.018;23.986;2024-01-27T07:10:03;85.28;;;50.65;;
2213;SDS011;1113;42.018;23.986;2024-01-27T07:12:32;96.80;;;57.80;;
2213;SDS011;1113;42.018;23.986;2024-01-27T07:15:00;94.90;;;53.88;;
2213;SDS011;1113;42.018;23.986;2024-01-27T07:17:28;83.35;;;54.05;;
2213;SDS011;1113;42.018;23.986;2024-01-27T07:19:55;80.95;;;48.03;;
2213;SDS011;1113;42.018;23.986;2024-01-27T07:22:23;82.22;;;46.78;;
2213;SDS011;1113;42.018;23.986;2024-01-27T07:24:50;78.47;;;45.90;;
2213;SDS011;1113;42.018;23.986;2024-01-27T07:27:17;71.10;;;42.85;;
2213;SDS011;1113;42.018;23.986;2024-01-27T07:29:44;65.65;;;41.22;;
2213;SDS011;1113;42.018;23.986;2024-01-27T07:32:12;61.17;;;40.85;;
2213;SDS011;1113;42.018;23.986;2024-01-27T07:34:42;57.42;;;32.53;;
2213;SDS011;1113;42.018;23.986;2024-01-27T07:37:09;34.72;;;24.08;;
2213;SDS011;1113;42.018;23.986;2024-01-27T07:39:37;40.28;;;23.95;;
2213;SDS011;1113;42.018;23.986;2024-01-27T07:42:04;45.05;;;28.92;;
2213;SDS011;1113;42.018;23.986;2024-01-27T07:44:31;37.95;;;24.95;;
2213;SDS011;1113;42.018;23.986;2024-01-27T07:46:58;35.58;;;21.92;;
2213;SDS011;1113;42.018;23.986;2024-01-27T07:49:25;38.22;;;21.23;;
2213;SDS011;1113;42.018;23.986;2024-01-27T07:51:55;31.90;;;21.48;;
2213;SDS011;1113;42.018;23.986;2024-01-27T07:54:22;27.55;;;19.33;;
2213;SDS011;1113;42.018;23.986;2024-01-27T07:56:49;27.15;;;16.63;;
2213;SDS011;1113;42.018;23.986;2024-01-27T07:59:17;23.75;;;17.20;;
2213;SDS011;1113;42.018;23.986;2024-01-27T08:01:44;48.03;;;29.10;;
2213;SDS011;1113;42.018;23.986;2024-01-27T08:04:11;38.30;;;24.85;;
2213;SDS011;1113;42.018;23.986;2024-01-27T08:06:47;33.05;;;25.02;;
2213;SDS011;1113;42.018;23.986;2024-01-27T08:09:17;46.53;;;31.52;;
2213;SDS011;1113;42.018;23.986;2024-01-27T08:11:44;45.33;;;28.70;;
2213;SDS011;1113;42.018;23.986;2024-01-27T08:14:16;51.20;;;31.92;;
2213;SDS011;1113;42.018;23.986;2024-01-27T08:16:43;29.20;;;19.33;;
2213;SDS011;1113;42.018;23.986;2024-01-27T08:19:10;108.13;;;60.17;;
2213;SDS011;1113;42.018;23.986;2024-01-27T08:21:38;94.60;;;57.30;;
2213;SDS011;1113;42.018;23.986;2024-01-27T08:24:05;50.42;;;31.35;;
2213;SDS011;1113;42.018;23.986;2024-01-27T08:26:34;47.47;;;23.55;;
2213;SDS011;1113;42.018;23.986;2024-01-27T08:29:01;31.73;;;19.50;;
2213;SDS011;1113;42.018;23.986;2024-01-27T08:31:28;31.77;;;20.15;;
2213;SDS011;1113;42.018;23.986;2024-01-27T08:33:55;32.08;;;18.70;;
2213;SDS011;1113;42.018;23.986;2024-01-27T08:36:22;34.67;;;22.10;;
2213;SDS011;1113;42.018;23.986;2024-01-27T08:38:50;54.45;;;35.03;;
2213;SDS011;1113;42.018;23.986;2024-01-27T08:41:17;60.10;;;37.08;;
2213;SDS011;1113;42.018;23.986;2024-01-27T08:43:46;68.45;;;40.78;;
2213;SDS011;1113;42.018;23.986;2024-01-27T08:46:13;81.43;;;46.63;;
2213;SDS011;1113;42.018;23.986;2024-01-27T08:48:42;73.00;;;43.08;;
2213;SDS011;1113;42.018;23.986;2024-01-27T08:51:10;57.03;;;40.20;;
2213;SDS011;1113;42.018;23.986;2024-01-27T08:53:38;52.53;;;32.55;;
2213;SDS011;1113;42.018;23.986;2024-01-27T08:56:05;47.70;;;33.58;;
2213;SDS011;1113;42.018;23.986;2024-01-27T08:58:32;50.08;;;32.95;;
2213;SDS011;1113;42.018;23.986;2024-01-27T09:01:01;64.00;;;37.20;;
2213;SDS011;1113;42.018;23.986;2024-01-27T09:03:30;58.83;;;38.40;;
2213;SDS011;1113;42.018;23.986;2024-01-27T09:05:57;44.83;;;29.33;;
2213;SDS011;1113;42.018;23.986;2024-01-27T09:08:24;18.13;;;14.73;;
2213;SDS011;1113;42.018;23.986;2024-01-27T09:10:52;17.50;;;13.15;;
2213;SDS011;1113;42.018;23.986;2024-01-27T09:13:19;24.27;;;14.60;;
2213;SDS011;1113;42.018;23.986;2024-01-27T09:15:46;22.77;;;15.60;;
2213;SDS011;1113;42.018;23.986;2024-01-27T09:18:15;24.15;;;15.13;;
2213;SDS011;1113;42.018;23.986;2024-01-27T09:20:42;26.83;;;17.45;;
2213;SDS011;1113;42.018;23.986;2024-01-27T09:23:09;27.65;;;18.10;;
2213;SDS011;1113;42.018;23.986;2024-01-27T09:25:37;24.40;;;16.15;;
2213;SDS011;1113;42.018;23.986;2024-01-27T09:28:04;18.40;;;12.38;;
2213;SDS011;1113;42.018;23.986;2024-01-27T09:30:31;21.92;;;13.65;;
2213;SDS011;1113;42.018;23.986;2024-01-27T09:32:58;19.25;;;13.52;;
2213;SDS011;1113;42.018;23.986;2024-01-27T09:35:27;20.92;;;14.70;;
2213;SDS011;1113;42.018;23.986;2024-01-27T09:37:54;24.67;;;15.95;;
2213;SDS011;1113;42.018;23.986;2024-01-27T09:40:21;24.05;;;15.25;;
2213;SDS011;1113;42.018;23.986;2024-01-27T09:42:50;26.08;;;15.77;;
2213;SDS011;1113;42.018;23.986;2024-01-27T09:45:18;47.15;;;27.33;;
2213;SDS011;1113;42.018;23.986;2024-01-27T09:47:47;53.47;;;33.78;;
2213;SDS011;1113;42.018;23.986;2024-01-27T09:50:16;48.58;;;33.40;;
2213;SDS011;1113;42.018;23.986;2024-01-27T09:52:45;47.85;;;33.53;;
2213;SDS011;1113;42.018;23.986;2024-01-27T09:55:13;47.83;;;33.50;;
2213;SDS011;1113;42.018;23.986;2024-01-27T09:57:40;51.50;;;34.33;;
2213;SDS011;1113;42.018;23.986;2024-01-27T10:00:11;52.40;;;33.05;;
2213;SDS011;1113;42.018;23.986;2024-01-27T10:02:39;54.67;;;33.72;;
2213;SDS011;1113;42.018;23.986;2024-01-27T10:05:07;56.17;;;36.25;;
2213;SDS011;1113;42.018;23.986;2024-01-27T10:07:35;40.45;;;26.80;;
2213;SDS011;1113;42.018;23.986;2024-01-27T10:10:04;37.38;;;24.90;;
2213;SDS011;1113;42.018;23.986;2024-01-27T10:12:32;37.30;;;26.52;;
2213;SDS011;1113;42.018;23.986;2024-01-27T10:15:05;38.08;;;25.85;;
2213;SDS011;1113;42.018;23.986;2024-01-27T10:17:33;24.92;;;18.75;;
2213;SDS011;1113;42.018;23.986;2024-01-27T10:20:03;27.50;;;18.10;;
2213;SDS011;1113;42.018;23.986;2024-01-27T10:22:39;33.83;;;21.67;;
2213;SDS011;1113;42.018;23.986;2024-01-27T10:25:08;36.57;;;24.50;;
2213;SDS011;1113;42.018;23.986;2024-01-27T10:27:36;34.67;;;24.93;;
2213;SDS011;1113;42.018;23.986;2024-01-27T10:30:03;28.63;;;19.87;;
2213;SDS011;1113;42.018;23.986;2024-01-27T10:32:32;30.27;;;22.27;;
2213;SDS011;1113;42.018;23.986;2024-01-27T10:35:01;29.83;;;20.90;;
2213;SDS011;1113;42.018;23.986;2024-01-27T10:37:29;29.00;;;22.40;;
2213;SDS011;1113;42.018;23.986;2024-01-27T10:40:00;20.73;;;15.00;;
2213;SDS011;1113;42.018;23.986;2024-01-27T10:42:30;9.60;;;6.07;;
2213;SDS011;1113;42.018;23.986;2024-01-27T10:44:58;6.70;;;3.90;;
2213;SDS011;1113;42.018;23.986;2024-01-27T10:47:27;7.50;;;5.23;;
2213;SDS011;1113;42.018;23.986;2024-01-27T10:49:56;9.00;;;5.67;;
2213;SDS011;1113;42.018;23.986;2024-01-27T10:52:24;11.10;;;6.60;;
2213;SDS011;1113;42.018;23.986;2024-01-27T10:54:58;13.27;;;7.63;;
2213;SDS011;1113;42.018;23.986;2024-01-27T10:57:29;28.17;;;12.80;;
2213;SDS011;1113;42.018;23.986;2024-01-27T11:00:00;18.17;;;10.13;;
2213;SDS011;1113;42.018;23.986;2024-01-27T11:02:32;12.30;;;7.70;;
2213;SDS011;1113;42.018;23.986;2024-01-27T11:05:00;12.30;;;7.20;;
2213;SDS011;1113;42.018;23.986;2024-01-27T11:07:30;11.03;;;7.30;;
2213;SDS011;1113;42.018;23.986;2024-01-27T11:09:59;12.37;;;6.70;;
2213;SDS011;1113;42.018;23.986;2024-01-27T11:12:27;4.60;;;2.30;;
2213;SDS011;1113;42.018;23.986;2024-01-27T11:14:56;6.03;;;3.53;;
2213;SDS011;1113;42.018;23.986;2024-01-27T11:17:24;2.30;;;1.50;;
2213;SDS011;1113;42.018;23.986;2024-01-27T11:19:52;2.30;;;1.50;;
2213;SDS011;1113;42.018;23.986;2024-01-27T11:22:25;6.03;;;3.57;;
2213;SDS011;1113;42.018;23.986;2024-01-27T11:24:52;5.40;;;3.07;;
2213;SDS011;1113;42.018;23.986;2024-01-27T11:27:26;8.57;;;5.77;;
2213;SDS011;1113;42.018;23.986;2024-01-27T11:29:57;6.60;;;4.37;;
2213;SDS011;1113;42.018;23.986;2024-01-27T11:32:25;3.07;;;1.77;;
2213;SDS011;1113;42.018;23.986;2024-01-27T11:34:52;3.60;;;2.30;;
2213;SDS011;1113;42.018;23.986;2024-01-27T11:37:20;6.03;;;3.80;;
2213;SDS011;1113;42.018;23.986;2024-01-27T11:39:50;3.93;;;2.33;;
2213;SDS011;1113;42.018;23.986;2024-01-27T11:42:17;3.60;;;1.90;;
2213;SDS011;1113;42.018;23.986;2024-01-27T11:44:45;2.30;;;1.00;;
2213;SDS011;1113;42.018;23.986;2024-01-27T11:47:18;2.20;;;0.80;;
2213;SDS011;1113;42.018;23.986;2024-01-27T11:49:50;1.40;;;0.63;;
2213;SDS011;1113;42.018;23.986;2024-01-27T11:52:20;2.20;;;1.10;;
2213;SDS011;1113;42.018;23.986;2024-01-27T11:54:53;2.77;;;1.50;;
2213;SDS011;1113;42.018;23.986;2024-01-27T11:57:24;6.40;;;1.60;;
2213;SDS011;1113;42.018;23.986;2024-01-27T11:59:52;2.03;;;1.30;;
2213;SDS011;1113;42.018;23.986;2024-01-27T12:02:22;2.67;;;1.20;;
2213;SDS011;1113;42.018;23.986;2024-01-27T12:04:49;1.87;;;0.80;;
2213;SDS011;1113;42.018;23.986;2024-01-27T12:07:16;1.73;;;0.80;;
2213;SDS011;1113;42.018;23.986;2024-01-27T12:09:45;1.87;;;0.80;;
2213;SDS011;1113;42.018;23.986;2024-01-27T12:12:13;2.70;;;1.60;;
2213;SDS011;1113;42.018;23.986;2024-01-27T12:14:42;1.70;;;0.80;;
2213;SDS011;1113;42.018;23.986;2024-01-27T12:17:12;1.60;;;0.80;;
2213;SDS011;1113;42.018;23.986;2024-01-27T12:19:48;2.80;;;1.50;;
2213;SDS011;1113;42.018;23.986;2024-01-27T12:22:22;2.10;;;1.00;;
2213;SDS011;1113;42.018;23.986;2024-01-27T12:24:51;1.80;;;1.03;;
2213;SDS011;1113;42.018;23.986;2024-01-27T12:27:18;1.60;;;0.80;;
2213;SDS011;1113;42.018;23.986;2024-01-27T12:29:47;1.87;;;1.10;;
2213;SDS011;1113;42.018;23.986;2024-01-27T12:32:15;2.57;;;1.37;;
2213;SDS011;1113;42.018;23.986;2024-01-27T12:34:43;3.90;;;2.73;;
2213;SDS011;1113;42.018;23.986;2024-01-27T12:37:13;2.87;;;1.47;;
2213;SDS011;1113;42.018;23.986;2024-01-27T12:39:41;2.60;;;1.00;;
2213;SDS011;1113;42.018;23.986;2024-01-27T12:42:09;3.20;;;1.97;;
2213;SDS011;1113;42.018;23.986;2024-01-27T12:44:37;5.77;;;2.97;;
2213;SDS011;1113;42.018;23.986;2024-01-27T12:47:05;3.00;;;1.87;;
2213;SDS011;1113;42.018;23.986;2024-01-27T12:49:34;4.13;;;2.73;;
2213;SDS011;1113;42.018;23.986;2024-01-27T12:52:04;2.53;;;1.90;;
2213;SDS011;1113;42.018;23.986;2024-01-27T12:54:32;3.53;;;1.77;;
2213;SDS011;1113;42.018;23.986;2024-01-27T12:56:59;3.10;;;1.90;;
2213;SDS011;1113;42.018;23.986;2024-01-27T12:59:27;4.97;;;2.83;;
2213;SDS011;1113;42.018;23.986;2024-01-27T13:01:55;4.70;;;3.10;;
2213;SDS011;1113;42.018;23.986;2024-01-27T13:04:22;4.20;;;1.90;;
2213;SDS011;1113;42.018;23.986;2024-01-27T13:06:49;2.70;;;1.63;;
2213;SDS011;1113;42.018;23.986;2024-01-27T13:09:19;2.40;;;1.77;;
2213;SDS011;1113;42.018;23.986;2024-01-27T13:11:47;3.00;;;1.90;;
2213;SDS011;1113;42.018;23.986;2024-01-27T13:14:14;1.33;;;0.60;;
2213;SDS011;1113;42.018;23.986;2024-01-27T13:16:44;1.50;;;0.70;;
2213;SDS011;1113;42.018;23.986;2024-01-27T13:19:11;2.53;;;1.60;;
2213;SDS011;1113;42.018;23.986;2024-01-27T13:21:38;3.77;;;2.50;;
2213;SDS011;1113;42.018;23.986;2024-01-27T13:24:06;2.87;;;1.80;;
2213;SDS011;1113;42.018;23.986;2024-01-27T13:26:35;3.73;;;2.23;;
2213;SDS011;1113;42.018;23.986;2024-01-27T13:29:03;2.27;;;1.60;;
2213;SDS011;1113;42.018;23.986;2024-01-27T13:31:30;3.37;;;1.93;;
2213;SDS011;1113;42.018;23.986;2024-01-27T13:33:57;2.30;;;1.03;;
2213;SDS011;1113;42.018;23.986;2024-01-27T13:36:24;5.60;;;3.03;;
2213;SDS011;1113;42.018;23.986;2024-01-27T13:38:52;6.07;;;4.03;;
2213;SDS011;1113;42.018;23.986;2024-01-27T13:41:19;6.90;;;4.20;;
2213;SDS011;1113;42.018;23.986;2024-01-27T13:43:47;6.53;;;3.87;;
2213;SDS011;1113;42.018;23.986;2024-01-27T13:46:15;16.47;;;8.20;;
2213;SDS011;1113;42.018;23.986;2024-01-27T13:48:42;5.83;;;4.30;;
2213;SDS011;1113;42.018;23.986;2024-01-27T13:51:10;14.77;;;7.57;;
2213;SDS011;1113;42.018;23.986;2024-01-27T13:53:38;8.67;;;5.50;;
2213;SDS011;1113;42.018;23.986;2024-01-27T13:56:05;9.00;;;5.17;;
2213;SDS011;1113;42.018;23.986;2024-01-27T13:58:33;11.50;;;6.23;;
2213;SDS011;1113;42.018;23.986;2024-01-27T14:01:01;11.30;;;7.13;;
2213;SDS011;1113;42.018;23.986;2024-01-27T14:03:28;9.27;;;5.27;;
2213;SDS011;1113;42.018;23.986;2024-01-27T14:05:56;7.90;;;4.67;;
2213;SDS011;1113;42.018;23.986;2024-01-27T14:08:23;16.23;;;8.53;;
2213;SDS011;1113;42.018;23.986;2024-01-27T14:10:50;10.53;;;6.83;;
2213;SDS011;1113;42.018;23.986;2024-01-27T14:13:18;9.67;;;5.50;;
2213;SDS011;1113;42.018;23.986;2024-01-27T14:15:45;5.87;;;3.63;;
2213;SDS011;1113;42.018;23.986;2024-01-27T14:18:13;7.43;;;5.10;;
2213;SDS011;1113;42.018;23.986;2024-01-27T14:20:45;13.93;;;8.30;;
2213;SDS011;1113;42.018;23.986;2024-01-27T14:23:13;10.33;;;6.73;;
2213;SDS011;1113;42.018;23.986;2024-01-27T14:25:40;8.53;;;4.93;;
2213;SDS011;1113;42.018;23.986;2024-01-27T14:28:07;12.43;;;7.30;;
2213;SDS011;1113;42.018;23.986;2024-01-27T14:30:36;15.63;;;9.20;;
2213;SDS011;1113;42.018;23.986;2024-01-27T14:33:05;14.60;;;9.17;;
2213;SDS011;1113;42.018;23.986;2024-01-27T14:35:33;8.20;;;5.30;;
2213;SDS011;1113;42.018;23.986;2024-01-27T14:38:00;7.87;;;6.47;;
2213;SDS011;1113;42.018;23.986;2024-01-27T14:40:27;8.00;;;5.35;;
2213;SDS011;1113;42.018;23.986;2024-01-27T14:42:56;6.20;;;4.75;;
2213;SDS011;1113;42.018;23.986;2024-01-27T14:45:24;7.60;;;3.92;;